sensor_id;sensor_type;location;lat;lon;timestamp;pressure;altitude;pressure_sealevel;temperature;humidity
64698;BME280;51124;53.394;-6.294;2024-03-06T00:01:07;100989.20;;;17.05;10.20
64698;BME280;51124;53.394;-6.294;2024-03-06T00:03:35;100984.94;;;17.41;10.03
64698;BME280;51124;53.394;-6.294;2024-03-06T00:06:03;100984.88;;;17.69;10.19
64698;BME280;51124;53.394;-6.294;2024-03-06T00:08:30;100985.01;;;17.81;10.14
64698;BME280;51124;53.394;-6.294;2024-03-06T00:10:58;100985.28;;;17.69;10.14
64698;BME280;51124;53.394;-6.294;2024-03-06T00:13:26;100984.49;;;16.63;10.08
64698;BME280;51124;53.394;-6.294;2024-03-06T00:15:53;100985.68;;;15.41;9.91
64698;BME280;51124;53.394;-6.294;2024-03-06T00:18:21;100990.30;;;14.76;9.42
64698;BME280;51124;53.394;-6.294;2024-03-06T00:20:48;100986.09;;;14.47;9.07
64698;BME280;51124;53.394;-6.294;2024-03-06T00:23:15;100991.76;;;15.12;8.84
64698;BME280;51124;53.394;-6.294;2024-03-06T00:25:43;100987.77;;;16.13;8.64
64698;BME280;51124;53.394;-6.294;2024-03-06T00:28:10;100991.21;;;14.06;8.64
64698;BME280;51124;53.394;-6.294;2024-03-06T00:30:38;100991.26;;;15.21;8.41
64698;BME280;51124;53.394;-6.294;2024-03-06T00:33:05;100987.76;;;15.41;8.35
64698;BME280;51124;53.394;-6.294;2024-03-06T00:35:32;100988.38;;;14.48;8.26
64698;BME280;51124;53.394;-6.294;2024-03-06T00:38:00;100982.67;;;14.49;8.14
64698;BME280;51124;53.394;-6.294;2024-03-06T00:40:27;100982.75;;;14.33;8.24
64698;BME280;51124;53.394;-6.294;2024-03-06T00:42:54;100982.52;;;15.26;7.96
64698;BME280;51124;53.394;-6.294;2024-03-06T00:45:22;100982.72;;;15.52;8.04
64698;BME280;51124;53.394;-6.294;2024-03-06T00:47:49;100977.60;;;14.52;8.11
64698;BME280;51124;53.394;-6.294;2024-03-06T00:50:17;100977.93;;;14.63;8.02
64698;BME280;51124;53.394;-6.294;2024-03-06T00:52:44;100981.01;;;14.72;7.80
64698;BME280;51124;53.394;-6.294;2024-03-06T00:55:12;100976.79;;;14.38;7.95
64698;BME280;51124;53.394;-6.294;2024-03-06T00:57:40;100974.92;;;15.80;7.84
64698;BME280;51124;53.394;-6.294;2024-03-06T01:00:08;100975.05;;;14.35;7.79
64698;BME280;51124;53.394;-6.294;2024-03-06T01:02:36;100979.40;;;15.00;7.84
64698;BME280;51124;53.394;-6.294;2024-03-06T01:05:04;100985.59;;;15.56;7.69
64698;BME280;51124;53.394;-6.294;2024-03-06T01:07:31;100985.08;;;15.85;7.74
64698;BME280;51124;53.394;-6.294;2024-03-06T01:09:59;100989.59;;;15.65;7.76
64698;BME280;51124;53.394;-6.294;2024-03-06T01:12:27;100989.76;;;14.25;7.80
64698;BME280;51124;53.394;-6.294;2024-03-06T01:14:54;100991.68;;;15.40;7.61
64698;BME280;51124;53.394;-6.294;2024-03-06T01:17:21;100988.32;;;15.27;7.66
64698;BME280;51124;53.394;-6.294;2024-03-06T01:19:49;100985.67;;;15.27;7.67
64698;BME280;51124;53.394;-6.294;2024-03-06T01:22:16;100979.73;;;15.62;7.71
64698;BME280;51124;53.394;-6.294;2024-03-06T01:24:44;100980.94;;;14.94;7.68
64698;BME280;51124;53.394;-6.294;2024-03-06T01:27:11;100981.58;;;15.42;7.67
64698;BME280;51124;53.394;-6.294;2024-03-06T01:29:39;100982.32;;;15.44;7.68
64698;BME280;51124;53.394;-6.294;2024-03-06T01:32:06;100977.68;;;14.50;7.81
64698;BME280;51124;53.394;-6.294;2024-03-06T01:34:34;100980.03;;;15.13;7.64
64698;BME280;51124;53.394;-6.294;2024-03-06T01:37:01;100981.08;;;15.09;7.69
64698;BME280;51124;53.394;-6.294;2024-03-06T01:39:28;100977.11;;;15.55;7.65
64698;BME280;51124;53.394;-6.294;2024-03-06T01:41:56;100985.57;;;14.64;7.77
64698;BME280;51124;53.394;-6.294;2024-03-06T01:44:23;100986.97;;;15.56;7.52
64698;BME280;51124;53.394;-6.294;2024-03-06T01:46:50;100990.61;;;14.67;7.79
64698;BME280;51124;53.394;-6.294;2024-03-06T01:49:18;100986.94;;;14.78;7.64
64698;BME280;51124;53.394;-6.294;2024-03-06T01:51:52;100991.01;;;15.17;7.58
64698;BME280;51124;53.394;-6.294;2024-03-06T01:54:20;100988.51;;;15.34;7.57
64698;BME280;51124;53.394;-6.294;2024-03-06T01:56:48;100983.91;;;15.55;7.71
64698;BME280;51124;53.394;-6.294;2024-03-06T01:59:18;100984.01;;;15.00;7.80
64698;BME280;51124;53.394;-6.294;2024-03-06T02:01:48;100978.67;;;14.58;7.78
64698;BME280;51124;53.394;-6.294;2024-03-06T02:04:16;100973.22;;;14.95;7.67
64698;BME280;51124;53.394;-6.294;2024-03-06T02:06:44;100973.30;;;14.55;7.66
64698;BME280;51124;53.394;-6.294;2024-03-06T02:09:12;100965.78;;;15.86;7.76
64698;BME280;51124;53.394;-6.294;2024-03-06T02:11:40;100963.18;;;16.64;7.75
64698;BME280;51124;53.394;-6.294;2024-03-06T02:14:07;100971.82;;;17.29;8.14
64698;BME280;51124;53.394;-6.294;2024-03-06T02:16:35;100967.28;;;15.46;8.47
64698;BME280;51124;53.394;-6.294;2024-03-06T02:19:03;100966.48;;;15.13;8.40
64698;BME280;51124;53.394;-6.294;2024-03-06T02:21:31;100971.84;;;18.58;8.64
64698;BME280;51124;53.394;-6.294;2024-03-06T02:23:59;100976.55;;;18.02;9.17
64698;BME280;51124;53.394;-6.294;2024-03-06T02:26:27;100969.50;;;18.11;9.31
64698;BME280;51124;53.394;-6.294;2024-03-06T02:28:55;100971.22;;;17.31;9.67
64698;BME280;51124;53.394;-6.294;2024-03-06T02:31:23;100972.64;;;17.45;9.65
64698;BME280;51124;53.394;-6.294;2024-03-06T02:33:51;100971.16;;;17.56;9.81
64698;BME280;51124;53.394;-6.294;2024-03-06T02:36:19;100968.19;;;16.91;9.94
64698;BME280;51124;53.394;-6.294;2024-03-06T02:38:48;100962.99;;;16.96;10.11
64698;BME280;51124;53.394;-6.294;2024-03-06T02:41:15;100962.41;;;16.97;10.02
64698;BME280;51124;53.394;-6.294;2024-03-06T02:43:43;100962.79;;;16.84;10.10
64698;BME280;51124;53.394;-6.294;2024-03-06T02:46:11;100959.66;;;17.12;10.14
64698;BME280;51124;53.394;-6.294;2024-03-06T02:48:39;100959.94;;;17.23;10.11
64698;BME280;51124;53.394;-6.294;2024-03-06T02:51:06;100959.55;;;16.64;10.06
64698;BME280;51124;53.394;-6.294;2024-03-06T02:53:34;100960.42;;;16.70;10.07
64698;BME280;51124;53.394;-6.294;2024-03-06T02:56:02;100959.36;;;17.16;9.94
64698;BME280;51124;53.394;-6.294;2024-03-06T02:58:29;100953.40;;;16.99;10.09
64698;BME280;51124;53.394;-6.294;2024-03-06T03:00:57;100956.08;;;17.52;10.13
64698;BME280;51124;53.394;-6.294;2024-03-06T03:03:25;100949.78;;;17.89;10.04
64698;BME280;51124;53.394;-6.294;2024-03-06T03:05:53;100946.24;;;16.85;10.11
64698;BME280;51124;53.394;-6.294;2024-03-06T03:08:21;100945.99;;;16.49;10.08
64698;BME280;51124;53.394;-6.294;2024-03-06T03:10:48;100941.00;;;16.35;9.98
64698;BME280;51124;53.394;-6.294;2024-03-06T03:13:16;100939.37;;;15.58;9.62
64698;BME280;51124;53.394;-6.294;2024-03-06T03:15:43;100940.46;;;14.86;9.25
64698;BME280;51124;53.394;-6.294;2024-03-06T03:18:10;100939.28;;;14.85;8.94
64698;BME280;51124;53.394;-6.294;2024-03-06T03:20:38;100936.14;;;15.47;8.75
64698;BME280;51124;53.394;-6.294;2024-03-06T03:23:05;100932.60;;;15.43;8.68
64698;BME280;51124;53.394;-6.294;2024-03-06T03:25:33;100933.07;;;15.19;8.34
64698;BME280;51124;53.394;-6.294;2024-03-06T03:28:00;100930.69;;;14.44;8.38
64698;BME280;51124;53.394;-6.294;2024-03-06T03:30:28;100925.74;;;14.70;8.19
64698;BME280;51124;53.394;-6.294;2024-03-06T03:32:55;100929.86;;;14.32;8.15
64698;BME280;51124;53.394;-6.294;2024-03-06T03:35:23;100935.19;;;14.85;8.02
64698;BME280;51124;53.394;-6.294;2024-03-06T03:37:50;100939.18;;;14.10;8.14
64698;BME280;51124;53.394;-6.294;2024-03-06T03:40:18;100931.38;;;15.20;7.89
64698;BME280;51124;53.394;-6.294;2024-03-06T03:42:45;100930.51;;;15.26;7.86
64698;BME280;51124;53.394;-6.294;2024-03-06T03:45:13;100926.48;;;15.63;7.73
64698;BME280;51124;53.394;-6.294;2024-03-06T03:47:40;100927.81;;;16.18;7.80
64698;BME280;51124;53.394;-6.294;2024-03-06T03:50:08;100933.24;;;15.26;7.78
64698;BME280;51124;53.394;-6.294;2024-03-06T03:52:36;100928.67;;;15.33;7.66
64698;BME280;51124;53.394;-6.294;2024-03-06T03:55:03;100934.86;;;15.42;7.71
64698;BME280;51124;53.394;-6.294;2024-03-06T03:57:31;100933.87;;;14.53;7.70
64698;BME280;51124;53.394;-6.294;2024-03-06T03:59:58;100931.68;;;15.87;7.65
64698;BME280;51124;53.394;-6.294;2024-03-06T04:02:25;100934.56;;;15.24;7.66
64698;BME280;51124;53.394;-6.294;2024-03-06T04:04:53;100931.42;;;15.01;7.72
64698;BME280;51124;53.394;-6.294;2024-03-06T04:07:20;100930.01;;;15.25;7.74
64698;BME280;51124;53.394;-6.294;2024-03-06T04:09:47;100922.19;;;15.21;7.61
64698;BME280;51124;53.394;-6.294;2024-03-06T04:12:15;100918.35;;;14.95;7.58
64698;BME280;51124;53.394;-6.294;2024-03-06T04:14:43;100919.23;;;15.56;7.46
64698;BME280;51124;53.394;-6.294;2024-03-06T04:17:10;100919.26;;;16.08;7.57
64698;BME280;51124;53.394;-6.294;2024-03-06T04:19:38;100922.10;;;15.08;7.56
64698;BME280;51124;53.394;-6.294;2024-03-06T04:22:05;100920.21;;;15.70;7.54
64698;BME280;51124;53.394;-6.294;2024-03-06T04:24:32;100920.36;;;15.68;7.52
64698;BME280;51124;53.394;-6.294;2024-03-06T04:27:00;100924.24;;;16.09;7.57
64698;BME280;51124;53.394;-6.294;2024-03-06T04:29:27;100925.66;;;15.33;7.55
64698;BME280;51124;53.394;-6.294;2024-03-06T04:31:54;100931.85;;;15.14;7.62
64698;BME280;51124;53.394;-6.294;2024-03-06T04:34:22;100924.88;;;15.43;7.50
64698;BME280;51124;53.394;-6.294;2024-03-06T04:36:49;100921.70;;;15.66;7.52
64698;BME280;51124;53.394;-6.294;2024-03-06T04:39:16;100918.66;;;14.38;7.62
64698;BME280;51124;53.394;-6.294;2024-03-06T04:41:44;100920.37;;;16.13;7.55
64698;BME280;51124;53.394;-6.294;2024-03-06T04:44:11;100921.05;;;15.10;7.59
64698;BME280;51124;53.394;-6.294;2024-03-06T04:46:38;100925.23;;;15.35;7.58
64698;BME280;51124;53.394;-6.294;2024-03-06T04:49:06;100928.11;;;15.72;7.57
64698;BME280;51124;53.394;-6.294;2024-03-06T04:51:33;100924.80;;;14.60;7.68
64698;BME280;51124;53.394;-6.294;2024-03-06T04:54:00;100920.77;;;16.37;7.42
64698;BME280;51124;53.394;-6.294;2024-03-06T04:56:28;100923.63;;;14.74;7.73
64698;BME280;51124;53.394;-6.294;2024-03-06T04:58:55;100923.59;;;14.36;7.73
64698;BME280;51124;53.394;-6.294;2024-03-06T05:01:22;100921.76;;;14.36;7.65
64698;BME280;51124;53.394;-6.294;2024-03-06T05:03:50;100913.07;;;14.66;7.62
64698;BME280;51124;53.394;-6.294;2024-03-06T05:06:17;100906.76;;;15.26;7.43
64698;BME280;51124;53.394;-6.294;2024-03-06T05:08:45;100905.51;;;15.26;7.52
64698;BME280;51124;53.394;-6.294;2024-03-06T05:11:12;100911.38;;;18.25;7.70
64698;BME280;51124;53.394;-6.294;2024-03-06T05:13:40;100914.77;;;17.65;8.16
64698;BME280;51124;53.394;-6.294;2024-03-06T05:16:07;100913.37;;;16.00;8.24
64698;BME280;51124;53.394;-6.294;2024-03-06T05:18:36;100907.55;;;18.67;8.30
64698;BME280;51124;53.394;-6.294;2024-03-06T05:21:04;100915.29;;;18.36;8.74
64698;BME280;51124;53.394;-6.294;2024-03-06T05:23:31;100917.29;;;18.26;9.23
64698;BME280;51124;53.394;-6.294;2024-03-06T05:25:59;100915.23;;;17.14;9.51
64698;BME280;51124;53.394;-6.294;2024-03-06T05:28:27;100920.25;;;17.09;9.54
64698;BME280;51124;53.394;-6.294;2024-03-06T05:30:55;100916.24;;;17.34;9.66
64698;BME280;51124;53.394;-6.294;2024-03-06T05:33:23;100922.28;;;18.16;9.65
64698;BME280;51124;53.394;-6.294;2024-03-06T05:35:50;100918.70;;;17.74;9.74
64698;BME280;51124;53.394;-6.294;2024-03-06T05:38:18;100912.40;;;17.77;9.74
64698;BME280;51124;53.394;-6.294;2024-03-06T05:40:46;100914.67;;;17.69;9.70
64698;BME280;51124;53.394;-6.294;2024-03-06T05:43:14;100917.33;;;17.52;9.79
64698;BME280;51124;53.394;-6.294;2024-03-06T05:45:42;100924.34;;;17.59;9.85
64698;BME280;51124;53.394;-6.294;2024-03-06T05:48:09;100925.15;;;17.32;9.86
64698;BME280;51124;53.394;-6.294;2024-03-06T05:50:37;100929.51;;;17.39;9.98
64698;BME280;51124;53.394;-6.294;2024-03-06T05:53:05;100927.14;;;17.75;9.85
64698;BME280;51124;53.394;-6.294;2024-03-06T05:55:33;100929.01;;;17.06;9.96
64698;BME280;51124;53.394;-6.294;2024-03-06T05:58:00;100930.49;;;17.45;9.98
64698;BME280;51124;53.394;-6.294;2024-03-06T06:00:29;100940.17;;;17.17;9.97
64698;BME280;51124;53.394;-6.294;2024-03-06T06:02:56;100943.49;;;17.41;9.90
64698;BME280;51124;53.394;-6.294;2024-03-06T06:05:24;100944.31;;;18.02;9.80
64698;BME280;51124;53.394;-6.294;2024-03-06T06:07:52;100948.02;;;17.15;9.96
64698;BME280;51124;53.394;-6.294;2024-03-06T06:10:20;100943.14;;;15.41;9.68
64698;BME280;51124;53.394;-6.294;2024-03-06T06:12:47;100944.81;;;14.35;9.53
64698;BME280;51124;53.394;-6.294;2024-03-06T06:15:15;100947.54;;;14.69;9.11
64698;BME280;51124;53.394;-6.294;2024-03-06T06:17:42;100947.37;;;15.38;8.64
64698;BME280;51124;53.394;-6.294;2024-03-06T06:20:10;100946.78;;;15.37;8.51
64698;BME280;51124;53.394;-6.294;2024-03-06T06:22:38;100945.29;;;14.97;8.35
64698;BME280;51124;53.394;-6.294;2024-03-06T06:25:05;100946.55;;;14.91;8.25
64698;BME280;51124;53.394;-6.294;2024-03-06T06:27:33;100947.49;;;15.10;8.20
64698;BME280;51124;53.394;-6.294;2024-03-06T06:30:01;100940.98;;;15.09;7.94
64698;BME280;51124;53.394;-6.294;2024-03-06T06:32:28;100939.28;;;15.30;7.84
64698;BME280;51124;53.394;-6.294;2024-03-06T06:34:55;100942.49;;;15.67;7.96
64698;BME280;51124;53.394;-6.294;2024-03-06T06:37:23;100946.24;;;15.03;7.87
64698;BME280;51124;53.394;-6.294;2024-03-06T06:39:50;100944.90;;;15.13;7.82
64698;BME280;51124;53.394;-6.294;2024-03-06T06:42:18;100952.87;;;14.51;7.80
64698;BME280;51124;53.394;-6.294;2024-03-06T06:44:45;100953.99;;;15.38;7.74
64698;BME280;51124;53.394;-6.294;2024-03-06T06:47:13;100953.71;;;15.66;7.58
64698;BME280;51124;53.394;-6.294;2024-03-06T06:49:40;100952.30;;;15.76;7.62
64698;BME280;51124;53.394;-6.294;2024-03-06T06:52:07;100947.19;;;14.67;7.69
64698;BME280;51124;53.394;-6.294;2024-03-06T06:54:35;100952.46;;;15.62;7.59
64698;BME280;51124;53.394;-6.294;2024-03-06T06:57:02;100955.57;;;14.48;7.64
64698;BME280;51124;53.394;-6.294;2024-03-06T06:59:30;100953.54;;;15.26;7.62
64698;BME280;51124;53.394;-6.294;2024-03-06T07:01:57;100950.27;;;16.07;7.52
64698;BME280;51124;53.394;-6.294;2024-03-06T07:04:25;100952.49;;;15.31;7.66
64698;BME280;51124;53.394;-6.294;2024-03-06T07:06:52;100951.50;;;15.55;7.61
64698;BME280;51124;53.394;-6.294;2024-03-06T07:09:19;100951.62;;;15.39;7.62
64698;BME280;51124;53.394;-6.294;2024-03-06T07:11:47;100958.06;;;14.89;7.68
64698;BME280;51124;53.394;-6.294;2024-03-06T07:14:15;100957.81;;;14.97;7.55
64698;BME280;51124;53.394;-6.294;2024-03-06T07:16:44;100953.99;;;15.06;7.57
64698;BME280;51124;53.394;-6.294;2024-03-06T07:19:11;100951.61;;;14.72;7.59
64698;BME280;51124;53.394;-6.294;2024-03-06T07:21:39;100955.73;;;15.22;7.48
64698;BME280;51124;53.394;-6.294;2024-03-06T07:24:07;100955.67;;;15.48;7.55
64698;BME280;51124;53.394;-6.294;2024-03-06T07:26:35;100953.35;;;15.79;7.60
64698;BME280;51124;53.394;-6.294;2024-03-06T07:29:02;100955.78;;;15.67;7.53
64698;BME280;51124;53.394;-6.294;2024-03-06T07:31:29;100957.60;;;15.79;7.53
64698;BME280;51124;53.394;-6.294;2024-03-06T07:33:57;100954.88;;;15.30;7.48
64698;BME280;51124;53.394;-6.294;2024-03-06T07:36:24;100953.70;;;14.76;7.63
64698;BME280;51124;53.394;-6.294;2024-03-06T07:38:52;100954.32;;;15.42;7.60
64698;BME280;51124;53.394;-6.294;2024-03-06T07:41:19;100958.10;;;14.80;7.68
64698;BME280;51124;53.394;-6.294;2024-03-06T07:43:47;100958.37;;;15.05;7.83
64698;BME280;51124;53.394;-6.294;2024-03-06T07:46:14;100951.94;;;14.57;7.80
64698;BME280;51124;53.394;-6.294;2024-03-06T07:48:44;100957.47;;;14.80;7.79
64698;BME280;51124;53.394;-6.294;2024-03-06T07:51:12;100952.30;;;15.16;7.75
64698;BME280;51124;53.394;-6.294;2024-03-06T07:53:39;100958.10;;;15.08;7.74
64698;BME280;51124;53.394;-6.294;2024-03-06T07:56:07;100954.64;;;15.30;7.78
64698;BME280;51124;53.394;-6.294;2024-03-06T07:58:37;100952.90;;;15.56;7.59
64698;BME280;51124;53.394;-6.294;2024-03-06T08:01:04;100952.47;;;15.39;7.58
64698;BME280;51124;53.394;-6.294;2024-03-06T08:03:32;100952.33;;;15.98;7.39
64698;BME280;51124;53.394;-6.294;2024-03-06T08:05:59;100955.80;;;15.67;7.46
64698;BME280;51124;53.394;-6.294;2024-03-06T08:08:27;100948.52;;;17.98;7.57
64698;BME280;51124;53.394;-6.294;2024-03-06T08:10:54;100951.45;;;18.12;7.98
64698;BME280;51124;53.394;-6.294;2024-03-06T08:13:21;100949.53;;;17.16;8.03
64698;BME280;51124;53.394;-6.294;2024-03-06T08:15:49;100953.73;;;15.78;8.04
64698;BME280;51124;53.394;-6.294;2024-03-06T08:18:17;100957.94;;;19.39;8.36
64698;BME280;51124;53.394;-6.294;2024-03-06T08:20:44;100961.54;;;18.72;8.83
64698;BME280;51124;53.394;-6.294;2024-03-06T08:23:12;100963.28;;;18.64;9.06
64698;BME280;51124;53.394;-6.294;2024-03-06T08:25:40;100971.93;;;18.78;9.30
64698;BME280;51124;53.394;-6.294;2024-03-06T08:28:08;100967.81;;;18.93;9.33
64698;BME280;51124;53.394;-6.294;2024-03-06T08:30:36;100982.04;;;18.75;9.53
64698;BME280;51124;53.394;-6.294;2024-03-06T08:33:04;100983.38;;;18.95;9.47
64698;BME280;51124;53.394;-6.294;2024-03-06T08:35:32;100981.17;;;18.81;9.55
64698;BME280;51124;53.394;-6.294;2024-03-06T08:38:00;100990.15;;;18.98;9.55
64698;BME280;51124;53.394;-6.294;2024-03-06T08:40:28;100980.66;;;18.17;9.59
64698;BME280;51124;53.394;-6.294;2024-03-06T08:42:56;100986.73;;;18.71;9.56
64698;BME280;51124;53.394;-6.294;2024-03-06T08:45:24;100986.33;;;18.45;9.61
64698;BME280;51124;53.394;-6.294;2024-03-06T08:47:51;100985.59;;;18.35;9.75
64698;BME280;51124;53.394;-6.294;2024-03-06T08:50:19;100990.26;;;18.97;9.61
64698;BME280;51124;53.394;-6.294;2024-03-06T08:52:48;100987.03;;;19.30;9.64
64698;BME280;51124;53.394;-6.294;2024-03-06T08:55:15;100986.68;;;18.51;9.76
64698;BME280;51124;53.394;-6.294;2024-03-06T08:57:43;100989.12;;;18.89;9.77
64698;BME280;51124;53.394;-6.294;2024-03-06T09:00:12;100991.24;;;18.51;9.78
64698;BME280;51124;53.394;-6.294;2024-03-06T09:02:40;100997.40;;;18.82;11.02
64698;BME280;51124;53.394;-6.294;2024-03-06T09:05:09;100994.82;;;18.18;10.48
64698;BME280;51124;53.394;-6.294;2024-03-06T09:07:37;101000.81;;;17.83;10.64
64698;BME280;51124;53.394;-6.294;2024-03-06T09:10:04;101003.50;;;17.20;10.26
64698;BME280;51124;53.394;-6.294;2024-03-06T09:12:32;100998.33;;;16.57;9.77
64698;BME280;51124;53.394;-6.294;2024-03-06T09:15:00;100997.47;;;16.80;9.22
64698;BME280;51124;53.394;-6.294;2024-03-06T09:17:27;100989.65;;;16.77;8.84
64698;BME280;51124;53.394;-6.294;2024-03-06T09:19:55;100984.02;;;17.55;8.73
64698;BME280;51124;53.394;-6.294;2024-03-06T09:22:23;100987.54;;;16.71;8.53
64698;BME280;51124;53.394;-6.294;2024-03-06T09:24:50;100988.31;;;16.93;8.29
64698;BME280;51124;53.394;-6.294;2024-03-06T09:27:18;100985.26;;;16.92;8.16
64698;BME280;51124;53.394;-6.294;2024-03-06T09:29:45;100983.00;;;17.35;8.05
64698;BME280;51124;53.394;-6.294;2024-03-06T09:32:13;100985.38;;;17.53;7.84
64698;BME280;51124;53.394;-6.294;2024-03-06T09:34:41;100981.57;;;17.86;7.85
64698;BME280;51124;53.394;-6.294;2024-03-06T09:37:08;100984.85;;;17.40;7.80
64698;BME280;51124;53.394;-6.294;2024-03-06T09:39:37;100982.77;;;18.31;7.67
64698;BME280;51124;53.394;-6.294;2024-03-06T09:42:04;100983.17;;;17.55;7.94
64698;BME280;51124;53.394;-6.294;2024-03-06T09:44:32;100976.20;;;17.10;8.07
64698;BME280;51124;53.394;-6.294;2024-03-06T09:47:02;100982.94;;;17.34;8.03
64698;BME280;51124;53.394;-6.294;2024-03-06T09:49:30;100976.74;;;17.34;7.96
64698;BME280;51124;53.394;-6.294;2024-03-06T09:51:58;100980.42;;;17.27;7.70
64698;BME280;51124;53.394;-6.294;2024-03-06T09:54:28;100966.57;;;17.73;7.56
64698;BME280;51124;53.394;-6.294;2024-03-06T09:56:56;100977.96;;;17.25;7.63
64698;BME280;51124;53.394;-6.294;2024-03-06T09:59:23;100978.82;;;17.88;7.61
64698;BME280;51124;53.394;-6.294;2024-03-06T10:01:53;100976.73;;;17.04;7.59
64698;BME280;51124;53.394;-6.294;2024-03-06T10:04:22;100973.60;;;18.11;7.47
64698;BME280;51124;53.394;-6.294;2024-03-06T10:06:51;100979.60;;;17.82;7.51
64698;BME280;51124;53.394;-6.294;2024-03-06T10:09:21;100977.16;;;17.88;7.49
64698;BME280;51124;53.394;-6.294;2024-03-06T10:11:48;100976.94;;;18.85;7.52
64698;BME280;51124;53.394;-6.294;2024-03-06T10:14:16;100981.81;;;17.94;7.53
64698;BME280;51124;53.394;-6.294;2024-03-06T10:16:54;100978.56;;;18.27;7.44
64698;BME280;51124;53.394;-6.294;2024-03-06T10:19:19;100981.99;;;17.64;7.62
64698;BME280;51124;53.394;-6.294;2024-03-06T10:21:37;100986.47;;;17.92;7.51
64698;BME280;51124;53.394;-6.294;2024-03-06T10:24:05;100982.29;;;18.19;7.41
64698;BME280;51124;53.394;-6.294;2024-03-06T10:26:32;100976.89;;;17.54;7.36
64698;BME280;51124;53.394;-6.294;2024-03-06T10:28:59;100973.71;;;18.15;7.44
64698;BME280;51124;53.394;-6.294;2024-03-06T10:31:28;100981.88;;;16.91;7.49
64698;BME280;51124;53.394;-6.294;2024-03-06T10:33:56;100976.17;;;17.91;7.27
64698;BME280;51124;53.394;-6.294;2024-03-06T10:36:31;100977.88;;;17.27;7.85
64698;BME280;51124;53.394;-6.294;2024-03-06T10:39:00;100971.90;;;17.44;7.99
64698;BME280;51124;53.394;-6.294;2024-03-06T10:41:31;100975.32;;;18.82;7.61
64698;BME280;51124;53.394;-6.294;2024-03-06T10:44:01;100972.16;;;17.93;7.49
64698;BME280;51124;53.394;-6.294;2024-03-06T10:46:29;100973.72;;;17.47;7.56
64698;BME280;51124;53.394;-6.294;2024-03-06T10:48:58;100975.69;;;18.13;7.51
64698;BME280;51124;53.394;-6.294;2024-03-06T10:51:27;100980.22;;;17.68;7.42
64698;BME280;51124;53.394;-6.294;2024-03-06T10:53:55;100983.46;;;18.67;7.47
64698;BME280;51124;53.394;-6.294;2024-03-06T10:56:23;100991.27;;;18.82;7.37
64698;BME280;51124;53.394;-6.294;2024-03-06T10:58:52;100993.14;;;17.91;7.46
64698;BME280;51124;53.394;-6.294;2024-03-06T11:01:23;100990.51;;;17.80;7.40
64698;BME280;51124;53.394;-6.294;2024-03-06T11:03:51;100990.34;;;17.89;7.26
64698;BME280;51124;53.394;-6.294;2024-03-06T11:06:19;100985.50;;;18.20;7.14
64698;BME280;51124;53.394;-6.294;2024-03-06T11:08:48;100986.59;;;18.07;7.22
64698;BME280;51124;53.394;-6.294;2024-03-06T11:11:23;100983.94;;;20.93;7.25
64698;BME280;51124;53.394;-6.294;2024-03-06T11:13:41;100983.31;;;20.30;7.70
64698;BME280;51124;53.394;-6.294;2024-03-06T11:16:10;100979.52;;;18.90;7.82
64698;BME280;51124;53.394;-6.294;2024-03-06T11:18:46;100979.63;;;19.66;7.55
64698;BME280;51124;53.394;-6.294;2024-03-06T11:21:30;100985.03;;;22.55;7.96
64698;BME280;51124;53.394;-6.294;2024-03-06T11:24:14;100989.48;;;21.54;8.41
64698;BME280;51124;53.394;-6.294;2024-03-06T11:26:11;100987.62;;;21.48;8.66
64698;BME280;51124;53.394;-6.294;2024-03-06T11:28:40;100993.66;;;21.01;8.85
64698;BME280;51124;53.394;-6.294;2024-03-06T11:31:09;100987.04;;;21.18;8.97
64698;BME280;51124;53.394;-6.294;2024-03-06T11:33:38;100994.16;;;20.82;8.94
64698;BME280;51124;53.394;-6.294;2024-03-06T11:36:19;100999.37;;;21.13;8.91
64698;BME280;51124;53.394;-6.294;2024-03-06T11:38:39;101002.43;;;21.43;8.92
64698;BME280;51124;53.394;-6.294;2024-03-06T11:41:07;101000.98;;;20.78;8.96
64698;BME280;51124;53.394;-6.294;2024-03-06T11:43:41;100999.06;;;21.26;8.99
64698;BME280;51124;53.394;-6.294;2024-03-06T11:46:10;101007.90;;;21.27;9.06
64698;BME280;51124;53.394;-6.294;2024-03-06T11:48:38;101011.91;;;21.26;9.04
64698;BME280;51124;53.394;-6.294;2024-03-06T11:51:06;101019.79;;;20.67;9.08
64698;BME280;51124;53.394;-6.294;2024-03-06T11:53:35;101019.12;;;21.18;8.99
64698;BME280;51124;53.394;-6.294;2024-03-06T11:56:05;101012.49;;;21.00;9.04
64698;BME280;51124;53.394;-6.294;2024-03-06T11:58:33;101012.94;;;20.32;9.14
64698;BME280;51124;53.394;-6.294;2024-03-06T12:01:01;101015.29;;;20.87;9.17
64698;BME280;51124;53.394;-6.294;2024-03-06T12:03:29;101010.71;;;21.36;8.94
64698;BME280;51124;53.394;-6.294;2024-03-06T12:05:57;101018.42;;;21.85;8.96
64698;BME280;51124;53.394;-6.294;2024-03-06T12:08:25;101010.66;;;20.99;9.08
64698;BME280;51124;53.394;-6.294;2024-03-06T12:10:53;101008.85;;;19.98;8.91
64698;BME280;51124;53.394;-6.294;2024-03-06T12:13:20;101007.54;;;18.64;8.64
64698;BME280;51124;53.394;-6.294;2024-03-06T12:15:47;100998.58;;;17.96;8.23
64698;BME280;51124;53.394;-6.294;2024-03-06T12:18:16;100997.92;;;18.78;8.02
64698;BME280;51124;53.394;-6.294;2024-03-06T12:20:44;100991.07;;;19.78;7.80
64698;BME280;51124;53.394;-6.294;2024-03-06T12:23:18;100992.45;;;19.93;7.64
64698;BME280;51124;53.394;-6.294;2024-03-06T12:25:46;101000.42;;;18.24;7.70
64698;BME280;51124;53.394;-6.294;2024-03-06T12:28:13;101007.34;;;18.56;7.42
64698;BME280;51124;53.394;-6.294;2024-03-06T12:30:43;101014.31;;;20.26;7.00
64698;BME280;51124;53.394;-6.294;2024-03-06T12:33:11;101014.36;;;18.50;7.14
64698;BME280;51124;53.394;-6.294;2024-03-06T12:35:43;100998.95;;;19.45;6.86
64698;BME280;51124;53.394;-6.294;2024-03-06T12:38:14;100997.48;;;19.24;6.99
64698;BME280;51124;53.394;-6.294;2024-03-06T12:40:42;100997.53;;;18.69;7.10
64698;BME280;51124;53.394;-6.294;2024-03-06T12:43:10;100999.58;;;18.50;7.18
64698;BME280;51124;53.394;-6.294;2024-03-06T12:45:38;101001.41;;;19.01;6.97
64698;BME280;51124;53.394;-6.294;2024-03-06T12:48:06;101008.36;;;18.43;6.91
64698;BME280;51124;53.394;-6.294;2024-03-06T12:50:34;101013.55;;;19.38;6.78
64698;BME280;51124;53.394;-6.294;2024-03-06T12:53:01;101007.82;;;19.06;6.84